createdAt,value
2017-02-01T00:00:22.924Z,1020.46
2017-02-01T00:01:12.928Z,1020.47
2017-02-01T00:01:54.349Z,1020.46
2017-02-01T00:04:09.012Z,1020.45
2017-02-01T00:04:54.078Z,1020.46
2017-02-01T00:05:37.467Z,1020.45
2017-02-01T00:06:21.085Z,1020.47
2017-02-01T00:07:04.098Z,1020.44
2017-02-01T00:09:00.818Z,1020.43
2017-02-01T00:09:42.901Z,1020.47
2017-02-01T00:10:34.810Z,1020.47
2017-02-01T00:11:19.687Z,1020.48
2017-02-01T00:12:02.888Z,1020.44
2017-02-01T00:12:49.676Z,1020.48
2017-02-01T00:13:35.672Z,1020.47
2017-02-01T00:14:23.692Z,1020.52
2017-02-01T00:15:17.896Z,1020.51
2017-02-01T00:16:12.889Z,1020.5
2017-02-01T00:16:54.165Z,1020.52
2017-02-01T00:19:07.354Z,1020.56
2017-02-01T00:19:49.555Z,1020.55
2017-02-01T00:20:33.589Z,1020.54
2017-02-01T00:21:22.440Z,1020.57
2017-02-01T00:22:06.464Z,1020.56
2017-02-01T00:22:52.432Z,1020.55
2017-02-01T00:23:48.556Z,1020.55
2017-02-01T00:26:12.127Z,1020.51
2017-02-01T00:27:04.019Z,1020.54
2017-02-01T00:27:54.009Z,1020.5
2017-02-01T00:28:39.163Z,1020.51
2017-02-01T00:30:37.200Z,1020.53
2017-02-01T00:31:26.796Z,1020.53
2017-02-01T00:35:52.750Z,1020.6
2017-02-01T00:36:35.965Z,1020.55
2017-02-01T00:37:22.640Z,1020.54
2017-02-01T00:39:40.481Z,1020.53
2017-02-01T00:40:23.459Z,1020.5
2017-02-01T00:41:05.551Z,1020.53
2017-02-01T00:41:47.342Z,1020.54
2017-02-01T00:42:30.560Z,1020.56
2017-02-01T00:43:11.828Z,1020.55
2017-02-01T00:43:54.843Z,1020.57
2017-02-01T00:44:50.225Z,1020.57
2017-02-01T00:49:03.325Z,1020.59
2017-02-01T00:49:46.456Z,1020.61
2017-02-01T00:50:27.568Z,1020.64
2017-02-01T00:51:09.447Z,1020.64
2017-02-01T00:51:50.567Z,1020.6
2017-02-01T00:52:36.327Z,1020.64
2017-02-01T00:53:22.318Z,1020.59
2017-02-01T00:54:08.329Z,1020.57
2017-02-01T00:55:01.550Z,1020.57
2017-02-01T00:55:45.435Z,1020.57
2017-02-01T00:56:25.886Z,1020.51
2017-02-01T00:57:11.819Z,1020.53
2017-02-01T00:58:00.961Z,1020.47
2017-02-01T00:58:43.042Z,1020.43
2017-02-01T01:33:58.357Z,1020.3
2017-02-01T01:36:14.666Z,1020.27
2017-02-01T01:36:55.152Z,1020.26
2017-02-01T01:37:42.169Z,1020.26
2017-02-01T01:38:22.619Z,1020.24
2017-02-01T01:39:03.797Z,1020.26
2017-02-01T01:39:45.893Z,1020.24
2017-02-01T01:40:28.208Z,1020.21
2017-02-01T01:41:09.551Z,1020.22
2017-02-01T01:48:19.624Z,1020.36
2017-02-01T01:52:29.883Z,1020.33
2017-02-01T01:56:47.421Z,1020.25
2017-02-01T01:57:31.157Z,1020.27
2017-02-01T01:58:26.554Z,1020.28
2017-02-01T01:59:11.412Z,1020.3
2017-02-01T01:59:55.360Z,1020.24
2017-02-01T02:00:40.281Z,1020.27
2017-02-01T02:01:26.196Z,1020.24
2017-02-01T02:02:12.284Z,1020.22
2017-02-01T02:04:11.384Z,1020.18
2017-02-01T02:04:53.427Z,1020.19
2017-02-01T02:05:39.429Z,1020.19
2017-02-01T02:06:27.434Z,1020.16
2017-02-01T02:07:25.581Z,1020.2
2017-02-01T02:08:07.434Z,1020.17
2017-02-01T02:08:49.848Z,1020.19
2017-02-01T02:14:19.735Z,1020.12
2017-02-01T02:15:00.957Z,1020.09
2017-02-01T02:15:43.747Z,1020.14
2017-02-01T02:16:24.909Z,1020.17
2017-02-01T02:17:07.902Z,1020.21
2017-02-01T02:17:49.969Z,1020.22
2017-02-01T02:18:31.746Z,1020.23
2017-02-01T02:20:25.434Z,1020.2
2017-02-01T02:21:08.438Z,1020.25
2017-02-01T02:21:50.833Z,1020.25
2017-02-01T02:22:33.923Z,1020.24
2017-02-01T02:23:14.946Z,1020.26
2017-02-01T02:24:02.815Z,1020.24
2017-02-01T02:24:44.957Z,1020.29
2017-02-01T02:27:20.523Z,1020.28
2017-02-01T02:28:07.618Z,1020.24
2017-02-01T02:28:51.539Z,1020.3
2017-02-01T02:32:45.906Z,1020.28
2017-02-01T02:33:28.204Z,1020.27
2017-02-01T02:34:08.672Z,1020.25
2017-02-01T02:34:50.029Z,1020.24
2017-02-01T02:38:54.227Z,1020.27
2017-02-01T02:39:34.625Z,1020.24
2017-02-01T02:42:10.256Z,1020.25
2017-02-01T02:42:55.077Z,1020.24
2017-02-01T02:43:40.143Z,1020.23
2017-02-01T02:44:33.024Z,1020.23
2017-02-01T02:45:19.014Z,1020.25
2017-02-01T02:46:01.353Z,1020.25
2017-02-01T02:46:43.164Z,1020.2
2017-02-01T02:47:27.013Z,1020.24
2017-02-01T02:48:13.233Z,1020.2
2017-02-01T02:48:54.236Z,1020.22
2017-02-01T02:49:36.518Z,1020.28
2017-02-01T02:50:16.992Z,1020.28
2017-02-01T02:50:58.146Z,1020.23
2017-02-01T02:51:42.332Z,1020.26
2017-02-01T02:52:26.516Z,1020.26
2017-02-01T02:53:07.033Z,1020.25
2017-02-01T02:53:50.135Z,1020.21
2017-02-01T02:54:35.122Z,1020.24
2017-02-01T02:55:17.313Z,1020.22
2017-02-01T02:55:59.140Z,1020.23
2017-02-01T02:56:42.212Z,1020.26
2017-02-01T02:57:24.728Z,1020.23
2017-02-01T02:58:05.804Z,1020.22
2017-02-01T02:58:46.316Z,1020.23
2017-02-01T03:00:45.426Z,1020.19
2017-02-01T03:01:27.118Z,1020.22
2017-02-01T03:02:07.565Z,1020.31
2017-02-01T03:03:03.623Z,1020.26
2017-02-01T03:03:44.763Z,1020.25
2017-02-01T03:04:33.489Z,1020.34
2017-02-01T03:05:20.494Z,1020.35
2017-02-01T03:06:13.609Z,1020.29
2017-02-01T03:07:14.502Z,1020.36
2017-02-01T03:08:03.102Z,1020.34
2017-02-01T03:08:53.007Z,1020.32
2017-02-01T03:09:57.982Z,1020.32
2017-02-01T03:10:47.211Z,1020.31
2017-02-01T03:11:43.151Z,1020.31
2017-02-01T03:12:32.107Z,1020.3
2017-02-01T03:13:12.541Z,1020.29
2017-02-01T03:13:53.019Z,1020.31
2017-02-01T03:16:08.908Z,1020.3
2017-02-01T03:16:50.851Z,1020.3
2017-02-01T03:17:33.746Z,1020.3
2017-02-01T03:18:18.985Z,1020.36
2017-02-01T03:19:03.162Z,1020.31
2017-02-01T03:19:45.141Z,1020.33
2017-02-01T03:20:31.279Z,1020.3
2017-02-01T03:21:12.548Z,1020.29
2017-02-01T03:21:53.539Z,1020.3
2017-02-01T03:22:36.359Z,1020.27
2017-02-01T03:23:23.443Z,1020.27
2017-02-01T03:24:05.553Z,1020.27
2017-02-01T03:24:46.046Z,1020.25
2017-02-01T03:25:26.545Z,1020.27
2017-02-01T03:26:08.678Z,1020.25
2017-02-01T03:26:51.893Z,1020.29
2017-02-01T03:27:32.377Z,1020.29
2017-02-01T03:28:12.848Z,1020.29
2017-02-01T03:28:53.361Z,1020.32
2017-02-01T03:29:34.467Z,1020.3
2017-02-01T03:30:16.660Z,1020.33
2017-02-01T03:30:59.628Z,1020.3
2017-02-01T03:31:41.143Z,1020.31
2017-02-01T03:32:23.143Z,1020.34
2017-02-01T03:33:08.244Z,1020.34
2017-02-01T03:34:03.258Z,1020.29
2017-02-01T03:34:44.640Z,1020.32
2017-02-01T03:35:30.664Z,1020.31
2017-02-01T03:36:15.656Z,1020.29
2017-02-01T03:36:59.774Z,1020.23
2017-02-01T03:37:41.851Z,1020.29
2017-02-01T03:38:31.858Z,1020.3
2017-02-01T03:39:19.666Z,1020.27
2017-02-01T03:40:00.225Z,1020.31
2017-02-01T03:40:46.285Z,1020.27
2017-02-01T03:41:33.146Z,1020.3
2017-02-01T03:42:20.139Z,1020.27
2017-02-01T03:43:02.409Z,1020.25
2017-02-01T03:43:47.640Z,1020.27
2017-02-01T03:44:29.958Z,1020.25
2017-02-01T03:45:12.051Z,1020.26
2017-02-01T03:46:00.180Z,1020.22
2017-02-01T03:46:45.157Z,1020.23
2017-02-01T03:47:30.381Z,1020.22
2017-02-01T03:48:13.151Z,1020.23
2017-02-01T03:48:55.153Z,1020.23
2017-02-01T03:49:37.357Z,1020.23
2017-02-01T03:50:19.866Z,1020.17
2017-02-01T03:51:06.654Z,1020.2
2017-02-01T03:51:48.857Z,1020.18
2017-02-01T03:52:32.133Z,1020.17
2017-02-01T03:53:13.641Z,1020.2
2017-02-01T03:53:56.784Z,1020.18
2017-02-01T03:54:39.959Z,1020.15
2017-02-01T03:55:23.780Z,1020.23
2017-02-01T03:56:14.981Z,1020.22
2017-02-01T03:56:57.029Z,1020.21
2017-02-01T03:57:46.626Z,1020.23
2017-02-01T04:01:41.654Z,1020.17
2017-02-01T04:02:24.499Z,1020.16
2017-02-01T04:03:12.386Z,1020.17
2017-02-01T04:03:54.622Z,1020.16
2017-02-01T04:04:50.605Z,1020.24
2017-02-01T04:05:31.767Z,1020.2
2017-02-01T04:06:13.012Z,1020.26
2017-02-01T04:07:08.892Z,1020.22
2017-02-01T04:08:02.892Z,1020.25
2017-02-01T04:08:45.874Z,1020.22
2017-02-01T04:09:34.871Z,1020.2
2017-02-01T04:10:19.021Z,1020.24
2017-02-01T04:11:15.875Z,1020.26
2017-02-01T04:11:56.899Z,1020.26
2017-02-01T04:12:48.074Z,1020.27
2017-02-01T04:15:06.705Z,1020.22
2017-02-01T04:15:49.461Z,1020.19
2017-02-01T04:16:30.574Z,1020.25
2017-02-01T04:17:15.739Z,1020.25
2017-02-01T04:18:02.749Z,1020.27
2017-02-01T04:18:52.452Z,1020.23
2017-02-01T04:21:14.057Z,1020.26
2017-02-01T04:22:09.026Z,1020.25
2017-02-01T04:22:59.014Z,1020.27
2017-02-01T04:27:30.457Z,1020.29
2017-02-01T04:28:13.581Z,1020.24
2017-02-01T04:28:57.401Z,1020.24
2017-02-01T04:29:39.573Z,1020.25
2017-02-01T04:30:25.283Z,1020.23
2017-02-01T04:31:13.491Z,1020.24
2017-02-01T04:37:05.687Z,1020.16
2017-02-01T04:37:59.804Z,1020.17
2017-02-01T04:38:41.996Z,1020.13
2017-02-01T04:39:28.665Z,1020.16
2017-02-01T04:40:12.839Z,1020.16
2017-02-01T04:41:00.652Z,1020.15
2017-02-01T04:41:41.197Z,1020.14
2017-02-01T04:42:21.687Z,1020.15
2017-02-01T04:43:10.989Z,1020.16
2017-02-01T04:43:53.821Z,1020.17
2017-02-01T04:46:09.843Z,1020.13
2017-02-01T04:46:54.549Z,1020.16
2017-02-01T04:47:38.715Z,1020.18
2017-02-01T04:48:23.543Z,1020.15
2017-02-01T04:49:10.543Z,1020.16
2017-02-01T04:49:59.812Z,1020.17
2017-02-01T04:50:45.045Z,1020.14
2017-02-01T04:54:38.474Z,1020.15
2017-02-01T04:55:21.330Z,1020.18
2017-02-01T04:56:05.563Z,1020.15
2017-02-01T04:56:49.316Z,1020.18
2017-02-01T04:57:30.459Z,1020.15
2017-02-01T04:58:13.344Z,1020.14
2017-02-01T04:58:56.551Z,1020.19
2017-02-01T04:59:37.053Z,1020.22
2017-02-01T05:00:18.321Z,1020.2
2017-02-01T05:01:01.577Z,1020.16
2017-02-01T05:01:42.847Z,1020.11
2017-02-01T05:02:32.825Z,1020.15
2017-02-01T05:03:13.382Z,1020.13
2017-02-01T05:03:57.318Z,1020.1
2017-02-01T05:04:39.582Z,1020.13
2017-02-01T05:08:37.575Z,1020.15
2017-02-01T05:09:19.682Z,1020.16
2017-02-01T05:10:00.735Z,1020.15
2017-02-01T05:10:43.164Z,1020.11
2017-02-01T05:11:29.128Z,1020.12
2017-02-01T05:12:20.519Z,1020.14
2017-02-01T05:13:03.267Z,1020.1
2017-02-01T05:13:53.436Z,1020.13
2017-02-01T05:14:36.616Z,1020.11
2017-02-01T05:17:12.677Z,1020.16
2017-02-01T05:17:53.189Z,1020.12
2017-02-01T05:18:36.104Z,1020.15
2017-02-01T05:19:18.392Z,1020.14
2017-02-01T05:19:59.795Z,1020.12
2017-02-01T05:20:42.572Z,1020.1
2017-02-01T05:21:24.774Z,1020.13
2017-02-01T05:22:08.181Z,1020.12
2017-02-01T05:22:49.376Z,1020.14
2017-02-01T05:23:30.489Z,1020.11
2017-02-01T05:24:12.565Z,1020.12
2017-02-01T05:25:01.950Z,1020.06
2017-02-01T05:25:51.566Z,1020.11
2017-02-01T05:26:35.265Z,1020.12
2017-02-01T05:27:16.901Z,1020.1
2017-02-01T05:28:00.415Z,1020.03
2017-02-01T05:28:57.165Z,1020.05
2017-02-01T05:29:39.306Z,1020.04
2017-02-01T05:30:21.354Z,1020.04
2017-02-01T05:31:04.677Z,1020.06
2017-02-01T05:31:46.543Z,1020.02
2017-02-01T05:32:33.569Z,1020.04
2017-02-01T05:33:14.798Z,1020.02
2017-02-01T05:33:57.075Z,1020.05
2017-02-01T05:34:40.085Z,1020.04
2017-02-01T05:35:22.389Z,1019.95
2017-02-01T05:36:08.060Z,1020.03
2017-02-01T05:36:50.166Z,1020.05
2017-02-01T05:37:33.173Z,1020.07
2017-02-01T05:38:15.186Z,1020.04
2017-02-01T05:38:56.431Z,1020.07
2017-02-01T05:42:44.224Z,1020.02
2017-02-01T05:43:30.435Z,1020.03
2017-02-01T05:44:14.285Z,1020.02
2017-02-01T05:44:56.090Z,1020.01
2017-02-01T05:45:41.813Z,1019.97
2017-02-01T05:46:27.231Z,1019.99
2017-02-01T05:47:27.798Z,1020.01
2017-02-01T05:50:04.334Z,1020.02
2017-02-01T05:50:49.409Z,1019.99
2017-02-01T05:51:29.931Z,1020
2017-02-01T05:52:12.964Z,1020.01
2017-02-01T05:52:54.032Z,1020.02
2017-02-01T05:53:37.942Z,1019.97
2017-02-01T05:54:18.926Z,1019.97
2017-02-01T05:55:05.911Z,1020.01
2017-02-01T05:55:47.333Z,1019.94
2017-02-01T05:56:29.643Z,1019.96
2017-02-01T05:57:15.535Z,1019.99
2017-02-01T05:57:58.709Z,1019.99
2017-02-01T05:58:41.401Z,1019.91
2017-02-01T05:59:21.882Z,1019.95
2017-02-01T06:00:06.907Z,1019.96
2017-02-01T06:00:50.929Z,1019.94
2017-02-01T06:01:32.244Z,1019.88
2017-02-01T06:02:23.404Z,1019.91
2017-02-01T06:03:05.665Z,1019.86
2017-02-01T06:03:51.416Z,1019.88
2017-02-01T06:04:35.405Z,1019.89
2017-02-01T06:05:15.942Z,1019.85
2017-02-01T06:05:56.409Z,1019.86
2017-02-01T06:06:47.895Z,1019.88
2017-02-01T06:07:31.047Z,1019.92
2017-02-01T06:08:13.013Z,1019.94
2017-02-01T06:08:56.906Z,1019.87
2017-02-01T06:09:48.901Z,1019.88
2017-02-01T06:11:50.471Z,1019.92
2017-02-01T06:15:41.095Z,1019.95
2017-02-01T06:18:21.741Z,1020
2017-02-01T06:19:05.720Z,1019.98
2017-02-01T06:19:50.586Z,1019.92
2017-02-01T06:20:33.585Z,1019.94
2017-02-01T06:21:21.730Z,1019.96
2017-02-01T06:22:02.970Z,1019.97
2017-02-01T06:24:19.921Z,1019.98
2017-02-01T06:25:01.886Z,1019.95
2017-02-01T06:25:54.765Z,1019.97
2017-02-01T06:26:35.252Z,1019.99
2017-02-01T06:27:18.462Z,1019.98
2017-02-01T06:27:59.573Z,1020
2017-02-01T06:28:43.274Z,1019.98
2017-02-01T06:29:30.308Z,1019.99
2017-02-01T06:30:12.245Z,1019.97
2017-02-01T06:30:55.544Z,1019.94
2017-02-01T06:31:37.962Z,1019.98
2017-02-01T06:32:21.887Z,1019.94
2017-02-01T06:33:06.770Z,1019.99
2017-02-01T06:33:48.751Z,1019.94
2017-02-01T06:34:46.969Z,1020
2017-02-01T06:35:32.751Z,1020.01
2017-02-01T06:36:19.762Z,1020.03
2017-02-01T06:37:01.128Z,1020.01
2017-02-01T06:37:46.018Z,1020.01
2017-02-01T06:38:31.760Z,1019.98
2017-02-01T06:39:16.794Z,1020.05
2017-02-01T06:39:59.293Z,1020.07
2017-02-01T06:40:41.269Z,1020.05
2017-02-01T06:41:21.752Z,1019.99
2017-02-01T06:42:03.901Z,1020.06
2017-02-01T06:42:49.761Z,1020.06
2017-02-01T06:43:30.881Z,1020.07
2017-02-01T06:44:13.053Z,1020.09
2017-02-01T06:44:55.475Z,1020.1
2017-02-01T06:45:42.672Z,1020.09
2017-02-01T06:46:23.994Z,1020.08
2017-02-01T06:47:05.160Z,1020.07
2017-02-01T06:49:27.703Z,1020.05
2017-02-01T06:50:16.642Z,1020.06
2017-02-01T06:50:59.562Z,1020.07
2017-02-01T06:53:18.516Z,1020.08
2017-02-01T06:53:59.849Z,1020.09
2017-02-01T06:54:41.356Z,1020.07
2017-02-01T06:55:23.989Z,1020.09
2017-02-01T06:56:12.507Z,1020.08
2017-02-01T06:56:54.787Z,1020.06
2017-02-01T06:57:41.533Z,1020.12
2017-02-01T06:58:38.722Z,1020.1
2017-02-01T06:59:26.517Z,1020.09
2017-02-01T07:00:07.716Z,1020.12
2017-02-01T07:00:52.518Z,1020.12
2017-02-01T07:01:33.021Z,1020.13
2017-02-01T07:02:13.612Z,1020.15
2017-02-01T07:02:54.105Z,1020.15
2017-02-01T07:03:34.649Z,1020.13
2017-02-01T07:04:19.736Z,1020.11
2017-02-01T07:05:00.445Z,1020.11
2017-02-01T07:08:29.463Z,1020.13
2017-02-01T07:09:11.639Z,1020.12
2017-02-01T07:09:53.043Z,1020.15
2017-02-01T07:10:34.693Z,1020.13
2017-02-01T07:14:06.345Z,1020.11
2017-02-01T07:14:51.489Z,1020.16
2017-02-01T07:15:37.238Z,1020.11
2017-02-01T07:16:17.770Z,1020.12
2017-02-01T07:16:58.297Z,1020.15
2017-02-01T07:17:44.251Z,1020.13
2017-02-01T07:18:33.226Z,1020.16
2017-02-01T07:19:14.666Z,1020.12
2017-02-01T07:19:56.545Z,1020.15
2017-02-01T07:20:49.899Z,1020.15
2017-02-01T07:21:34.149Z,1020.09
2017-02-01T07:22:18.776Z,1020.1
2017-02-01T07:23:00.974Z,1020.11
2017-02-01T07:23:41.617Z,1020.11
2017-02-01T07:24:27.844Z,1020.12
2017-02-01T07:25:08.451Z,1020.17
2017-02-01T07:25:53.315Z,1020.16
2017-02-01T07:26:37.307Z,1020.11
2017-02-01T07:27:21.500Z,1020.15
2017-02-01T07:28:05.937Z,1020.14
2017-02-01T07:28:46.509Z,1020.11
2017-02-01T07:29:30.443Z,1020.12
2017-02-01T07:30:12.371Z,1020.16
2017-02-01T07:30:54.153Z,1020.14
2017-02-01T07:31:35.775Z,1020.13
2017-02-01T07:32:18.893Z,1020.17
2017-02-01T07:32:59.859Z,1020.15
2017-02-01T07:33:40.402Z,1020.11
2017-02-01T07:34:24.100Z,1020.15
2017-02-01T07:35:07.071Z,1020.09
2017-02-01T07:35:51.829Z,1020.12
2017-02-01T07:36:32.326Z,1020.16
2017-02-01T07:37:12.855Z,1020.18
2017-02-01T07:37:53.336Z,1020.12
2017-02-01T07:38:33.808Z,1020.18
2017-02-01T07:39:15.021Z,1020.12
2017-02-01T07:39:57.334Z,1020.14
2017-02-01T07:40:43.304Z,1020.12
2017-02-01T07:41:25.821Z,1020.17
2017-02-01T07:42:08.997Z,1020.13
2017-02-01T07:42:56.822Z,1020.14
2017-02-01T07:43:38.268Z,1020.15
2017-02-01T07:44:24.989Z,1020.13
2017-02-01T07:45:07.372Z,1020.15
2017-02-01T07:45:50.517Z,1020.13
2017-02-01T07:46:30.990Z,1020.17
2017-02-01T07:47:11.557Z,1020.16
2017-02-01T07:47:52.180Z,1020.17
2017-02-01T07:48:34.535Z,1020.15
2017-02-01T07:49:16.616Z,1020.16
2017-02-01T07:49:57.083Z,1020.19
2017-02-01T07:50:37.547Z,1020.15
2017-02-01T07:51:18.019Z,1020.19
2017-02-01T07:51:58.491Z,1020.18
2017-02-01T07:52:45.472Z,1020.17
2017-02-01T07:53:29.445Z,1020.17
2017-02-01T07:54:14.517Z,1020.15
2017-02-01T07:54:56.649Z,1020.19
2017-02-01T07:55:37.093Z,1020.2
2017-02-01T07:56:23.810Z,1020.15
2017-02-01T07:57:06.136Z,1020.15
2017-02-01T07:57:49.552Z,1020.14
2017-02-01T07:58:31.741Z,1020.12
2017-02-01T07:59:15.873Z,1020.19
2017-02-01T07:59:56.405Z,1020.2
2017-02-01T08:00:38.466Z,1020.19
2017-02-01T08:01:23.480Z,1020.13
2017-02-01T08:02:05.944Z,1020.17
2017-02-01T08:02:49.818Z,1020.12
2017-02-01T08:03:31.320Z,1020.15
2017-02-01T08:04:15.313Z,1020.16
2017-02-01T08:05:00.788Z,1020.11
2017-02-01T08:05:43.487Z,1020.12
2017-02-01T08:06:24.722Z,1020.14
2017-02-01T08:07:10.643Z,1020.11
2017-02-01T08:07:52.164Z,1020.08
2017-02-01T08:08:37.230Z,1020.16
2017-02-01T08:09:23.290Z,1020.07
2017-02-01T08:10:07.061Z,1020.12
2017-02-01T08:10:50.781Z,1020.12
2017-02-01T08:11:35.903Z,1020.12
2017-02-01T08:12:16.619Z,1020.09
2017-02-01T08:12:59.536Z,1020.14
2017-02-01T08:13:40.051Z,1020.09
2017-02-01T08:14:24.316Z,1020.11
2017-02-01T08:15:11.526Z,1020.16
2017-02-01T08:15:54.919Z,1020.14
2017-02-01T08:16:39.953Z,1020.16
2017-02-01T08:17:22.930Z,1020.13
2017-02-01T08:18:05.019Z,1020.1
2017-02-01T08:18:48.513Z,1020.15
2017-02-01T08:19:29.160Z,1020.09
2017-02-01T08:20:09.630Z,1020.14
2017-02-01T08:20:50.335Z,1020.1
2017-02-01T08:21:32.553Z,1020.07
2017-02-01T08:22:13.142Z,1020.12
2017-02-01T08:22:54.589Z,1020.09
2017-02-01T08:23:35.109Z,1020.09
2017-02-01T08:24:16.519Z,1020.06
2017-02-01T08:24:57.036Z,1020.11
2017-02-01T08:25:40.316Z,1020.09
2017-02-01T08:26:24.336Z,1020.07
2017-02-01T08:27:14.364Z,1020.12
2017-02-01T08:27:56.933Z,1020.04
2017-02-01T08:28:40.983Z,1020.08
2017-02-01T08:29:27.965Z,1020.06
2017-02-01T08:30:12.216Z,1020.09
2017-02-01T08:30:52.683Z,1020.09
2017-02-01T08:31:33.218Z,1020.05
2017-02-01T08:32:15.661Z,1020.03
2017-02-01T08:32:59.781Z,1020.04
2017-02-01T08:33:43.219Z,1020.04
2017-02-01T08:34:28.368Z,1020.04
2017-02-01T08:35:11.803Z,1020.02
2017-02-01T08:35:55.237Z,1020.08
2017-02-01T08:36:44.337Z,1020.11
2017-02-01T08:37:33.584Z,1020.04
2017-02-01T08:38:19.322Z,1020.13
2017-02-01T08:39:03.612Z,1020.06
2017-02-01T08:39:44.121Z,1020.05
2017-02-01T08:40:24.624Z,1020.05
2017-02-01T08:41:09.208Z,1020.07
2017-02-01T08:41:50.517Z,1020.04
2017-02-01T08:42:32.953Z,1020.03
2017-02-01T08:43:19.238Z,1020.05
2017-02-01T08:44:00.915Z,1020.06
2017-02-01T08:44:43.038Z,1020.11
2017-02-01T08:45:25.444Z,1020.04
2017-02-01T08:46:10.442Z,1020.07
2017-02-01T08:46:50.929Z,1020.06
2017-02-01T08:47:38.922Z,1020.05
2017-02-01T08:48:19.423Z,1020.01
2017-02-01T08:49:00.869Z,1020.04
2017-02-01T08:49:41.413Z,1020.04
2017-02-01T08:50:21.876Z,1020.01
2017-02-01T08:51:06.931Z,1020.03
2017-02-01T08:51:51.108Z,1020.03
2017-02-01T08:54:05.298Z,1019.98
2017-02-01T08:54:45.757Z,1019.97
2017-02-01T08:55:30.145Z,1019.94
2017-02-01T08:56:10.609Z,1019.96
2017-02-01T08:56:51.075Z,1019.96
2017-02-01T08:57:32.805Z,1019.93
2017-02-01T08:58:14.163Z,1019.92
2017-02-01T08:58:54.605Z,1019.94
2017-02-01T08:59:37.626Z,1019.93
2017-02-01T09:00:18.151Z,1019.92
2017-02-01T09:00:58.680Z,1019.92
2017-02-01T09:01:39.178Z,1019.96
2017-02-01T09:02:19.757Z,1019.93
2017-02-01T09:03:00.335Z,1019.92
2017-02-01T09:03:40.815Z,1019.91
2017-02-01T09:04:21.325Z,1019.93
2017-02-01T09:05:02.346Z,1019.93
2017-02-01T09:05:42.929Z,1019.94
2017-02-01T09:06:23.411Z,1019.95
2017-02-01T09:07:03.949Z,1019.89
2017-02-01T09:09:26.606Z,1019.98
2017-02-01T09:10:08.890Z,1019.94
2017-02-01T09:11:09.860Z,1019.95
2017-02-01T09:11:50.378Z,1019.91
2017-02-01T09:14:03.957Z,1019.88
2017-02-01T09:14:47.266Z,1019.91
2017-02-01T09:17:01.463Z,1019.88
2017-02-01T09:17:41.967Z,1019.84
2017-02-01T09:18:22.550Z,1019.87
2017-02-01T09:19:03.711Z,1019.86
2017-02-01T09:19:44.218Z,1019.84
2017-02-01T09:20:25.352Z,1019.86
2017-02-01T09:21:05.897Z,1019.87
2017-02-01T09:21:46.556Z,1019.84
2017-02-01T09:22:27.744Z,1019.83
2017-02-01T09:23:10.037Z,1019.85
2017-02-01T09:23:50.579Z,1019.82
2017-02-01T09:24:31.104Z,1019.86
2017-02-01T09:25:11.605Z,1019.87
2017-02-01T09:25:53.659Z,1019.82
2017-02-01T09:26:35.181Z,1019.84
2017-02-01T09:27:15.654Z,1019.85
2017-02-01T09:27:56.160Z,1019.87
2017-02-01T09:28:36.632Z,1019.81
2017-02-01T09:29:17.201Z,1019.81
2017-02-01T09:29:58.436Z,1019.8
2017-02-01T09:30:39.528Z,1019.77
2017-02-01T09:31:20.056Z,1019.79
2017-02-01T09:32:02.175Z,1019.77
2017-02-01T09:32:43.200Z,1019.8
2017-02-01T09:33:24.593Z,1019.74
2017-02-01T09:34:10.719Z,1019.8
2017-02-01T09:36:29.336Z,1019.8
2017-02-01T09:37:16.306Z,1019.78
2017-02-01T09:38:06.079Z,1019.76
2017-02-01T09:38:48.367Z,1019.77
2017-02-01T09:41:20.433Z,1019.79
2017-02-01T09:42:01.541Z,1019.79
2017-02-01T09:42:43.864Z,1019.75
2017-02-01T09:43:30.863Z,1019.75
2017-02-01T09:44:15.136Z,1019.76
2017-02-01T09:44:56.320Z,1019.72
2017-02-01T09:45:39.373Z,1019.7
2017-02-01T09:46:19.819Z,1019.74
2017-02-01T09:47:00.356Z,1019.69
2017-02-01T09:47:41.070Z,1019.7
2017-02-01T09:48:23.206Z,1019.67
2017-02-01T09:49:04.498Z,1019.69
2017-02-01T09:49:48.417Z,1019.66
2017-02-01T09:50:32.567Z,1019.65
2017-02-01T09:51:17.575Z,1019.64
2017-02-01T09:51:58.041Z,1019.62
2017-02-01T09:52:41.267Z,1019.6
2017-02-01T09:53:22.269Z,1019.6
2017-02-01T09:54:06.389Z,1019.65
2017-02-01T09:54:51.373Z,1019.65
2017-02-01T09:55:37.654Z,1019.65
2017-02-01T09:56:19.408Z,1019.6
2017-02-01T09:56:59.847Z,1019.66
2017-02-01T09:57:44.024Z,1019.68
2017-02-01T09:58:24.550Z,1019.62
2017-02-01T09:59:10.377Z,1019.57
2017-02-01T09:59:50.906Z,1019.64
2017-02-01T10:00:31.501Z,1019.62
2017-02-01T10:01:15.372Z,1019.61
2017-02-01T10:01:57.399Z,1019.64
2017-02-01T10:02:38.579Z,1019.66
2017-02-01T10:03:21.629Z,1019.62
2017-02-01T10:04:02.696Z,1019.55
2017-02-01T10:04:43.274Z,1019.56
2017-02-01T10:05:24.264Z,1019.59
2017-02-01T10:06:04.806Z,1019.58
2017-02-01T10:06:45.313Z,1019.61
2017-02-01T10:07:26.507Z,1019.63
2017-02-01T10:08:06.995Z,1019.6
2017-02-01T10:08:47.503Z,1019.54
2017-02-01T10:09:30.107Z,1019.61
2017-02-01T10:10:10.607Z,1019.62
2017-02-01T10:10:55.498Z,1019.61
2017-02-01T10:11:37.883Z,1019.56
2017-02-01T10:12:18.342Z,1019.58
2017-02-01T10:12:58.900Z,1019.58
2017-02-01T10:13:39.402Z,1019.6
2017-02-01T10:14:19.875Z,1019.63
2017-02-01T10:16:49.205Z,1019.56
2017-02-01T10:17:29.717Z,1019.56
2017-02-01T10:18:10.190Z,1019.6
2017-02-01T10:18:50.703Z,1019.61
2017-02-01T10:19:31.275Z,1019.59
2017-02-01T10:20:11.767Z,1019.6
2017-02-01T10:20:52.362Z,1019.6
2017-02-01T10:21:33.615Z,1019.61
2017-02-01T10:22:15.910Z,1019.56
2017-02-01T10:22:57.206Z,1019.47
2017-02-01T10:23:37.692Z,1019.53
2017-02-01T10:24:18.154Z,1019.53
2017-02-01T10:24:58.698Z,1019.46
2017-02-01T10:25:39.199Z,1019.56
2017-02-01T10:26:19.683Z,1019.53
2017-02-01T10:27:00.218Z,1019.55
2017-02-01T10:27:40.710Z,1019.52
2017-02-01T10:28:21.907Z,1019.52
2017-02-01T10:29:02.443Z,1019.55
2017-02-01T10:29:42.941Z,1019.56
2017-02-01T10:30:23.486Z,1019.53
2017-02-01T10:31:03.986Z,1019.5
2017-02-01T10:31:44.454Z,1019.56
2017-02-01T10:32:25.033Z,1019.51
2017-02-01T10:33:05.603Z,1019.54
2017-02-01T10:33:46.121Z,1019.54
2017-02-01T10:34:26.626Z,1019.46
2017-02-01T10:35:07.141Z,1019.48
2017-02-01T10:35:47.608Z,1019.52
2017-02-01T10:36:28.289Z,1019.47
2017-02-01T10:37:08.806Z,1019.46
2017-02-01T10:37:49.350Z,1019.45
2017-02-01T10:38:29.863Z,1019.48
2017-02-01T10:39:10.313Z,1019.51
2017-02-01T10:39:50.895Z,1019.48
2017-02-01T10:40:31.342Z,1019.43
2017-02-01T10:41:11.852Z,1019.44
2017-02-01T10:41:52.415Z,1019.44
2017-02-01T10:42:32.970Z,1019.45
2017-02-01T10:43:13.520Z,1019.46
2017-02-01T10:43:54.058Z,1019.44
2017-02-01T10:44:34.691Z,1019.45
2017-02-01T10:45:15.195Z,1019.44
2017-02-01T10:45:55.664Z,1019.43
2017-02-01T10:46:36.227Z,1019.5
2017-02-01T10:47:16.764Z,1019.43
2017-02-01T10:47:57.262Z,1019.47
2017-02-01T10:48:37.827Z,1019.43
2017-02-01T10:49:18.342Z,1019.46
2017-02-01T10:49:58.838Z,1019.49
2017-02-01T10:50:39.400Z,1019.47
2017-02-01T10:51:19.870Z,1019.4
2017-02-01T10:52:00.466Z,1019.43
2017-02-01T10:52:41.584Z,1019.45
2017-02-01T10:53:21.921Z,1019.39
2017-02-01T10:54:02.837Z,1019.32
2017-02-01T10:54:43.654Z,1019.37
2017-02-01T10:55:24.103Z,1019.37
2017-02-01T10:56:04.801Z,1019.31
2017-02-01T10:56:46.620Z,1019.33
2017-02-01T10:57:27.177Z,1019.32
2017-02-01T10:58:07.695Z,1019.33
2017-02-01T10:58:48.188Z,1019.27
2017-02-01T10:59:29.260Z,1019.27
2017-02-01T11:00:11.709Z,1019.27
2017-02-01T11:02:29.972Z,1019.2
2017-02-01T11:03:10.422Z,1019.25
2017-02-01T11:03:50.938Z,1019.26
2017-02-01T11:04:31.459Z,1019.18
2017-02-01T11:05:11.930Z,1019.21
2017-02-01T11:05:52.471Z,1019.19
2017-02-01T11:06:33.013Z,1019.18
2017-02-01T11:07:13.784Z,1019.16
2017-02-01T11:07:54.325Z,1019.13
2017-02-01T11:08:34.825Z,1019.12
2017-02-01T11:09:15.366Z,1019.14
2017-02-01T11:09:55.861Z,1019.14
2017-02-01T11:10:36.329Z,1019.13
2017-02-01T11:11:16.803Z,1019.03
2017-02-01T11:11:57.310Z,1019.04
2017-02-01T11:12:37.862Z,1019.1